createdAt,value
2017-10-08T00:00:22.664Z,10.21
2017-10-08T00:01:31.406Z,10.19
2017-10-08T00:03:17.102Z,10.07
2017-10-08T00:04:27.222Z,9.89
2017-10-08T00:06:11.666Z,9.71
2017-10-08T00:07:20.108Z,9.66
2017-10-08T00:09:06.949Z,9.57
2017-10-08T00:10:16.724Z,9.56
2017-10-08T00:12:11.006Z,9.46
2017-10-08T00:13:11.056Z,9.48
2017-10-08T00:14:55.993Z,9.34
2017-10-08T00:15:55.817Z,9.35
2017-10-08T00:17:50.040Z,9.43
2017-10-08T00:18:50.123Z,9.42
2017-10-08T00:20:44.790Z,9.38
2017-10-08T00:21:52.127Z,9.40
2017-10-08T00:23:38.486Z,9.34
2017-10-08T00:24:38.659Z,9.43
2017-10-08T00:26:33.308Z,9.40
2017-10-08T00:27:33.241Z,9.38
2017-10-08T00:29:27.231Z,9.35
2017-10-08T00:30:27.339Z,9.34
2017-10-08T00:32:22.030Z,9.20
2017-10-08T00:33:21.862Z,9.23
2017-10-08T00:35:16.335Z,9.15
2017-10-08T00:36:16.290Z,9.21
2017-10-08T00:38:10.809Z,9.06
2017-10-08T00:39:10.631Z,8.96
2017-10-08T00:41:05.274Z,8.83
2017-10-08T00:42:05.407Z,8.96
2017-10-08T00:43:59.647Z,8.84
2017-10-08T00:44:59.273Z,8.78
2017-10-08T00:46:53.670Z,8.79
2017-10-08T00:48:02.281Z,8.58
2017-10-08T00:49:47.369Z,8.62
2017-10-08T00:50:55.836Z,8.57
2017-10-08T00:52:40.630Z,8.60
2017-10-08T00:53:49.041Z,8.45
2017-10-08T00:55:33.843Z,8.44
2017-10-08T00:56:43.592Z,8.45
2017-10-08T00:58:28.429Z,8.47
2017-10-08T00:59:36.837Z,8.48
2017-10-08T01:01:28.971Z,8.35
2017-10-08T01:02:28.717Z,8.32
2017-10-08T01:04:15.549Z,8.37
2017-10-08T01:05:15.505Z,8.40
2017-10-08T01:07:17.565Z,8.36
2017-10-08T01:08:09.880Z,8.29
2017-10-08T01:10:10.989Z,8.25
2017-10-08T01:11:03.284Z,8.25
2017-10-08T01:12:56.676Z,8.22
2017-10-08T01:13:56.641Z,8.17
2017-10-08T01:15:50.029Z,8.18
2017-10-08T01:16:50.040Z,8.08
2017-10-08T01:18:43.436Z,8.08
2017-10-08T01:19:43.421Z,8.10
2017-10-08T01:21:36.815Z,8.00
2017-10-08T01:22:36.830Z,8.07
2017-10-08T01:24:37.917Z,7.82
2017-10-08T01:25:30.202Z,7.87
2017-10-08T01:27:23.661Z,7.87
2017-10-08T01:28:23.677Z,7.84
2017-10-08T01:30:24.664Z,7.84
2017-10-08T01:31:17.077Z,7.82
2017-10-08T01:33:10.447Z,7.89
2017-10-08T01:34:10.430Z,7.92
2017-10-08T01:36:03.883Z,8.11
2017-10-08T01:37:03.835Z,8.03
2017-10-08T01:39:04.977Z,8.04
2017-10-08T01:39:57.300Z,8.04
2017-10-08T01:41:58.357Z,8.02
2017-10-08T01:42:50.634Z,8.02
2017-10-08T01:44:52.863Z,7.84
2017-10-08T01:45:52.755Z,7.85
2017-10-08T01:47:38.441Z,7.90
2017-10-08T01:48:38.472Z,7.85
2017-10-08T01:50:40.493Z,7.85
2017-10-08T01:51:31.857Z,7.85
2017-10-08T01:53:25.242Z,7.89
2017-10-08T01:54:25.243Z,7.87
2017-10-08T01:56:18.627Z,7.87
2017-10-08T01:57:18.617Z,7.87
2017-10-08T01:59:13.030Z,7.81
2017-10-08T02:00:13.015Z,7.87
2017-10-08T02:02:15.194Z,7.85
2017-10-08T02:03:06.437Z,7.85
2017-10-08T02:05:00.875Z,7.82
2017-10-08T02:06:08.651Z,7.87
2017-10-08T02:07:54.271Z,7.87
2017-10-08T02:08:54.344Z,7.94
2017-10-08T02:10:57.270Z,7.92
2017-10-08T02:11:55.224Z,7.85
2017-10-08T02:13:48.681Z,7.99
2017-10-08T02:14:41.046Z,7.92
2017-10-08T02:16:42.039Z,8.02
2017-10-08T02:17:34.406Z,7.97
2017-10-08T02:19:36.474Z,7.94
2017-10-08T02:20:28.789Z,7.89
2017-10-08T02:22:29.814Z,8.08
2017-10-08T02:23:22.218Z,8.07
2017-10-08T02:25:23.245Z,7.99
2017-10-08T02:26:15.608Z,7.97
2017-10-08T02:28:09.026Z,8.07
2017-10-08T02:29:09.032Z,7.94
2017-10-08T02:31:10.050Z,8.07
2017-10-08T02:32:02.459Z,7.93
2017-10-08T02:34:04.418Z,7.89
2017-10-08T02:34:56.806Z,7.92
2017-10-08T02:36:57.829Z,8.03
2017-10-08T02:37:50.200Z,7.99
2017-10-08T02:39:51.314Z,7.89
2017-10-08T02:40:43.621Z,8.07
2017-10-08T02:42:45.652Z,8.08
2017-10-08T02:43:37.015Z,7.97
2017-10-08T02:45:38.123Z,8.02
2017-10-08T02:46:30.437Z,8.00
2017-10-08T02:48:32.416Z,7.90
2017-10-08T02:49:23.791Z,7.99
2017-10-08T02:51:24.923Z,8.00
2017-10-08T02:52:17.268Z,7.94
2017-10-08T02:54:11.761Z,7.97
2017-10-08T02:55:11.742Z,7.93
2017-10-08T02:57:05.193Z,7.92
2017-10-08T02:58:05.043Z,7.92
2017-10-08T02:59:58.689Z,8.00
2017-10-08T03:00:58.494Z,7.93
2017-10-08T03:03:00.737Z,8.00
2017-10-08T03:03:51.867Z,8.02
2017-10-08T03:05:46.401Z,8.00
2017-10-08T03:06:53.871Z,7.96
2017-10-08T03:08:39.688Z,8.04
2017-10-08T03:09:47.280Z,8.02
2017-10-08T03:11:41.448Z,8.03
2017-10-08T03:12:34.041Z,7.92
2017-10-08T03:14:27.484Z,8.00
2017-10-08T03:15:27.493Z,7.93
2017-10-08T03:17:20.838Z,7.99
2017-10-08T03:18:20.946Z,7.97
2017-10-08T03:20:22.910Z,8.02
2017-10-08T03:21:15.391Z,7.99
2017-10-08T03:23:09.724Z,7.97
2017-10-08T03:24:09.722Z,8.02
2017-10-08T03:26:03.181Z,7.96
2017-10-08T03:27:10.644Z,7.92
2017-10-08T03:29:05.491Z,8.03
2017-10-08T03:29:57.433Z,7.93
2017-10-08T03:31:58.511Z,7.92
2017-10-08T03:32:50.855Z,7.93
2017-10-08T03:34:53.883Z,7.96
2017-10-08T03:35:45.292Z,7.94
2017-10-08T03:37:38.732Z,7.92
2017-10-08T03:38:38.698Z,7.90
2017-10-08T03:40:33.068Z,8.00
2017-10-08T03:41:33.101Z,7.93
2017-10-08T03:43:27.543Z,7.96
2017-10-08T03:44:27.486Z,7.97
2017-10-08T03:46:21.945Z,7.97
2017-10-08T03:47:21.890Z,7.96
2017-10-08T03:49:24.966Z,8.08
2017-10-08T03:50:23.962Z,8.04
2017-10-08T03:52:18.437Z,8.04
2017-10-08T03:53:10.681Z,8.04
2017-10-08T03:55:04.076Z,8.08
2017-10-08T03:56:04.064Z,8.14
2017-10-08T03:57:58.566Z,8.10
2017-10-08T03:58:58.505Z,8.03
2017-10-08T04:00:51.812Z,8.14
2017-10-08T04:01:51.807Z,8.17
2017-10-08T04:03:46.238Z,8.04
2017-10-08T04:04:46.260Z,8.14
2017-10-08T04:06:47.229Z,8.08
2017-10-08T04:07:39.693Z,8.11
2017-10-08T04:09:41.655Z,8.11
2017-10-08T04:10:34.117Z,8.10
2017-10-08T04:12:38.174Z,8.20
2017-10-08T04:13:36.250Z,8.14
2017-10-08T04:15:22.056Z,8.07
2017-10-08T04:16:30.691Z,8.22
2017-10-08T04:18:16.328Z,8.20
2017-10-08T04:19:24.981Z,8.17
2017-10-08T04:21:17.332Z,8.22
2017-10-08T04:22:17.211Z,8.20
2017-10-08T04:24:10.650Z,8.22
2017-10-08T04:25:02.994Z,8.21
2017-10-08T04:27:05.102Z,8.22
2017-10-08T04:28:06.101Z,8.18
2017-10-08T04:29:58.493Z,8.22
2017-10-08T04:30:50.823Z,8.22
2017-10-08T04:32:45.341Z,8.22
2017-10-08T04:33:52.946Z,8.22
2017-10-08T04:35:39.713Z,8.22
2017-10-08T04:36:39.684Z,8.25
2017-10-08T04:38:34.126Z,8.29
2017-10-08T04:39:41.760Z,8.22
2017-10-08T04:41:36.305Z,8.26
2017-10-08T04:42:37.176Z,8.25
2017-10-08T04:44:23.144Z,8.21
2017-10-08T04:45:23.018Z,8.20
2017-10-08T04:47:24.970Z,8.26
2017-10-08T04:48:16.292Z,8.25
2017-10-08T04:50:18.420Z,8.25
2017-10-08T04:51:18.359Z,8.20
2017-10-08T04:53:03.116Z,8.21
2017-10-08T04:54:03.094Z,8.25
2017-10-08T04:55:56.477Z,8.26
2017-10-08T04:56:56.464Z,8.25
2017-10-08T04:58:50.928Z,8.29
2017-10-08T04:59:50.956Z,8.28
2017-10-08T05:01:54.232Z,8.28
2017-10-08T05:02:44.276Z,8.21
2017-10-08T05:04:45.301Z,8.22
2017-10-08T05:05:37.757Z,8.20
2017-10-08T05:07:39.753Z,8.22
2017-10-08T05:08:32.159Z,8.22
2017-10-08T05:10:33.223Z,8.22
2017-10-08T05:11:25.531Z,8.25
2017-10-08T05:13:26.555Z,8.15
2017-10-08T05:14:18.893Z,8.22
2017-10-08T05:16:21.950Z,8.14
2017-10-08T05:17:13.352Z,8.22
2017-10-08T05:19:07.719Z,8.14
2017-10-08T05:20:15.581Z,8.22
2017-10-08T05:22:02.172Z,8.25
2017-10-08T05:23:02.223Z,8.26
2017-10-08T05:25:05.227Z,8.22
2017-10-08T05:25:56.579Z,8.25
2017-10-08T05:27:49.932Z,8.17
2017-10-08T05:28:49.941Z,8.20
2017-10-08T05:30:43.416Z,8.30
2017-10-08T05:31:53.063Z,8.22
2017-10-08T05:33:38.068Z,8.22
2017-10-08T05:36:38.917Z,8.25
2017-10-08T05:37:39.883Z,8.15
2017-10-08T05:39:26.197Z,8.26
2017-10-08T05:40:25.566Z,8.30
2017-10-08T05:42:27.704Z,8.29
2017-10-08T05:43:19.946Z,8.18
2017-10-08T05:45:35.888Z,8.20
2017-10-08T05:46:28.009Z,8.25
2017-10-08T05:48:21.628Z,8.14
2017-10-08T05:49:29.240Z,8.14
2017-10-08T05:51:15.032Z,8.22
2017-10-08T05:52:14.990Z,8.25
2017-10-08T05:54:08.253Z,8.26
2017-10-08T05:55:08.297Z,8.21
2017-10-08T05:57:01.655Z,8.25
2017-10-08T05:58:01.665Z,8.25
2017-10-08T05:59:56.089Z,8.28
2017-10-08T06:01:03.636Z,8.25
2017-10-08T06:02:50.434Z,8.20
2017-10-08T06:03:58.062Z,8.21
2017-10-08T06:05:53.608Z,8.26
2017-10-08T06:06:44.815Z,8.25
2017-10-08T06:08:45.942Z,8.21
2017-10-08T06:09:38.186Z,8.35
2017-10-08T06:11:31.628Z,8.28
2017-10-08T06:12:39.378Z,8.26
2017-10-08T06:14:34.694Z,8.37
2017-10-08T06:15:34.565Z,8.37
2017-10-08T06:17:30.090Z,8.21
2017-10-08T06:18:20.352Z,8.40
2017-10-08T06:20:22.387Z,8.35
2017-10-08T06:21:14.804Z,8.42
2017-10-08T06:23:08.281Z,8.32
2017-10-08T06:24:08.272Z,8.35
2017-10-08T06:26:01.701Z,8.35
2017-10-08T06:27:01.648Z,8.30
2017-10-08T06:28:55.182Z,8.39
2017-10-08T06:29:55.143Z,8.33
2017-10-08T06:31:48.394Z,8.35
2017-10-08T06:32:48.454Z,8.37
2017-10-08T06:34:42.797Z,8.39
2017-10-08T06:35:42.920Z,8.30
2017-10-08T06:37:37.475Z,8.37
2017-10-08T06:38:37.327Z,8.48
2017-10-08T06:40:32.695Z,8.47
2017-10-08T06:41:32.787Z,8.58
2017-10-08T06:43:26.460Z,8.65
2017-10-08T06:44:26.170Z,8.62
2017-10-08T06:46:20.605Z,8.62
2017-10-08T06:47:20.534Z,8.71
2017-10-08T06:49:15.020Z,8.63
2017-10-08T06:50:15.011Z,8.68
2017-10-08T06:52:09.324Z,8.71
2017-10-08T06:53:09.382Z,8.66
2017-10-08T06:55:03.744Z,8.71
2017-10-08T06:56:03.910Z,8.81
2017-10-08T06:57:58.337Z,8.66
2017-10-08T06:58:58.128Z,8.79
2017-10-08T07:00:52.579Z,8.87
2017-10-08T07:01:52.824Z,8.81
2017-10-08T07:03:45.882Z,8.88
2017-10-08T07:04:45.940Z,8.97
2017-10-08T07:06:39.444Z,8.91
2017-10-08T07:07:39.368Z,8.84
2017-10-08T07:09:32.805Z,8.86
2017-10-08T07:10:32.784Z,8.83
2017-10-08T07:12:27.151Z,8.94
2017-10-08T07:13:27.079Z,9.10
2017-10-08T07:15:20.564Z,9.15
2017-10-08T07:16:20.510Z,9.24
2017-10-08T07:18:13.917Z,9.27
2017-10-08T07:19:13.968Z,9.34
2017-10-08T07:21:08.401Z,9.16
2017-10-08T07:22:08.414Z,9.21
2017-10-08T07:24:01.808Z,9.18
2017-10-08T07:25:01.789Z,9.28
2017-10-08T07:26:55.115Z,9.25
2017-10-08T07:27:55.107Z,9.10
2017-10-08T07:29:48.515Z,9.23
2017-10-08T07:30:48.521Z,9.15
2017-10-08T07:32:42.045Z,9.09
2017-10-08T07:33:41.919Z,9.25
2017-10-08T07:35:36.456Z,9.23
2017-10-08T07:36:36.467Z,9.12
2017-10-08T07:38:30.873Z,9.24
2017-10-08T07:39:30.936Z,9.25
2017-10-08T07:41:24.140Z,9.46
2017-10-08T07:42:24.141Z,9.45
2017-10-08T07:44:17.567Z,9.39
2017-10-08T07:45:17.620Z,9.40
2017-10-08T07:47:10.865Z,9.35
2017-10-08T07:48:10.976Z,9.32
2017-10-08T07:50:04.382Z,9.50
2017-10-08T07:51:04.436Z,9.52
2017-10-08T07:52:58.702Z,9.38
2017-10-08T07:53:58.728Z,9.42
2017-10-08T07:55:52.143Z,9.31
2017-10-08T07:56:52.104Z,9.34
2017-10-08T07:58:46.502Z,9.35
2017-10-08T07:59:46.561Z,9.39
2017-10-08T08:01:39.998Z,9.49
2017-10-08T08:02:40.044Z,9.43
2017-10-08T08:04:34.395Z,9.43
2017-10-08T08:05:34.472Z,9.31
2017-10-08T08:07:27.804Z,9.31
2017-10-08T08:08:27.790Z,9.23
2017-10-08T08:10:21.362Z,9.30
2017-10-08T08:11:21.162Z,9.31
2017-10-08T08:13:14.666Z,9.43
2017-10-08T08:14:14.645Z,9.39
2017-10-08T08:16:08.040Z,9.46
2017-10-08T08:17:07.997Z,9.58
2017-10-08T08:19:02.559Z,9.68
2017-10-08T08:20:02.481Z,9.64
2017-10-08T08:21:55.790Z,9.60
2017-10-08T08:22:55.826Z,9.68
2017-10-08T08:24:49.240Z,9.58
2017-10-08T08:25:49.334Z,9.63
2017-10-08T08:27:43.833Z,9.57
2017-10-08T08:28:43.693Z,9.49
2017-10-08T08:30:38.000Z,9.57
2017-10-08T08:31:38.077Z,9.52
2017-10-08T08:33:31.454Z,9.57
2017-10-08T08:34:31.571Z,9.60
2017-10-08T08:36:25.845Z,9.60
2017-10-08T08:37:25.922Z,9.53
2017-10-08T08:39:20.540Z,9.71
2017-10-08T08:40:20.210Z,9.78
2017-10-08T08:42:13.675Z,9.82
2017-10-08T08:43:13.675Z,9.75
2017-10-08T08:45:08.193Z,9.89
2017-10-08T08:46:09.004Z,9.83
2017-10-08T08:48:01.170Z,9.93
2017-10-08T08:49:01.158Z,9.85
2017-10-08T08:50:54.745Z,10.06
2017-10-08T08:51:54.546Z,10.01
2017-10-08T08:53:49.355Z,10.12
2017-10-08T08:54:49.348Z,10.22
2017-10-08T08:56:43.976Z,10.32
2017-10-08T08:57:43.534Z,10.26
2017-10-08T08:59:37.448Z,10.30
2017-10-08T09:00:37.008Z,10.18
2017-10-08T09:02:30.495Z,10.15
2017-10-08T09:03:30.472Z,10.33
2017-10-08T09:05:23.995Z,10.43
2017-10-08T09:06:23.867Z,10.47
2017-10-08T09:08:17.323Z,10.43
2017-10-08T09:09:17.176Z,10.52
2017-10-08T09:11:11.919Z,10.60
2017-10-08T09:12:10.067Z,10.70
2017-10-08T09:14:03.902Z,10.73
2017-10-08T09:15:03.735Z,10.88
2017-10-08T09:16:59.131Z,10.74
2017-10-08T09:17:57.959Z,10.84
2017-10-08T09:19:51.482Z,10.77
2017-10-08T09:20:51.651Z,10.74
2017-10-08T09:22:44.951Z,10.81
2017-10-08T09:23:44.839Z,10.78
2017-10-08T09:25:38.248Z,10.80
2017-10-08T09:26:38.242Z,10.83
2017-10-08T09:28:31.812Z,10.98
2017-10-08T09:29:31.672Z,10.94
2017-10-08T09:31:26.268Z,10.77
2017-10-08T09:32:27.094Z,10.65
2017-10-08T09:34:19.493Z,10.62
2017-10-08T09:35:19.569Z,10.56
2017-10-08T09:37:13.906Z,10.73
2017-10-08T09:38:13.906Z,10.83
2017-10-08T09:40:08.238Z,10.96
2017-10-08T09:41:08.402Z,11.02
2017-10-08T09:43:01.695Z,11.02
2017-10-08T09:44:01.793Z,10.96
2017-10-08T09:45:56.249Z,11.03
2017-10-08T09:46:56.825Z,10.98
2017-10-08T09:48:49.704Z,11.06
2017-10-08T09:49:49.493Z,11.06
2017-10-08T09:51:44.134Z,11.07
2017-10-08T09:52:44.036Z,11.09
2017-10-08T09:54:38.423Z,11.21
2017-10-08T09:55:38.269Z,11.20
2017-10-08T09:57:31.706Z,11.19
2017-10-08T09:58:31.793Z,11.16
2017-10-08T10:00:25.374Z,11.21
2017-10-08T10:01:25.355Z,11.13
2017-10-08T10:03:19.670Z,11.07
2017-10-08T10:04:19.702Z,11.02
2017-10-08T10:06:13.075Z,11.07
2017-10-08T10:07:13.099Z,11.14
2017-10-08T10:09:07.401Z,11.09
2017-10-08T10:10:07.419Z,11.06
2017-10-08T10:12:00.687Z,11.06
2017-10-08T10:13:00.873Z,11.02
2017-10-08T10:14:55.598Z,11.06
2017-10-08T10:15:54.213Z,11.07
2017-10-08T10:17:48.549Z,11.07
2017-10-08T10:18:48.730Z,11.16
2017-10-08T10:20:43.158Z,11.07
2017-10-08T10:21:42.973Z,11.07
2017-10-08T10:23:36.702Z,11.11
2017-10-08T10:24:36.353Z,11.10
2017-10-08T10:26:32.146Z,11.19
2017-10-08T10:27:31.873Z,11.28
2017-10-08T10:29:25.545Z,11.20
2017-10-08T10:30:25.700Z,11.25
2017-10-08T10:32:25.746Z,11.29
2017-10-08T10:33:18.119Z,11.34
2017-10-08T10:35:11.655Z,11.38
2017-10-08T10:36:11.494Z,11.28
2017-10-08T10:38:04.903Z,11.29
2017-10-08T10:39:04.975Z,11.32
2017-10-08T10:40:58.530Z,11.39
2017-10-08T10:41:58.341Z,11.31
2017-10-08T10:43:51.763Z,11.44
2017-10-08T10:44:51.753Z,11.38
2017-10-08T10:46:45.144Z,11.49
2017-10-08T10:47:45.150Z,11.52
2017-10-08T10:49:38.637Z,11.50
2017-10-08T10:50:38.555Z,11.62
2017-10-08T10:52:32.097Z,11.64
2017-10-08T10:53:32.204Z,11.70
2017-10-08T10:55:25.440Z,11.72
2017-10-08T10:56:25.487Z,11.80
2017-10-08T10:58:18.810Z,11.77
2017-10-08T10:59:19.050Z,11.70
2017-10-08T11:01:12.262Z,11.67
2017-10-08T11:02:12.303Z,11.80
2017-10-08T11:04:05.777Z,11.70
2017-10-08T11:05:06.034Z,11.64
2017-10-08T11:07:00.427Z,11.68
2017-10-08T11:08:00.124Z,11.53
2017-10-08T11:09:54.119Z,11.50
2017-10-08T11:10:54.059Z,11.56
2017-10-08T11:12:47.487Z,11.47
2017-10-08T11:13:47.841Z,11.36
2017-10-08T11:15:41.991Z,11.41
2017-10-08T11:16:42.404Z,11.36
2017-10-08T11:18:35.408Z,11.46
2017-10-08T11:19:35.282Z,11.44
2017-10-08T11:21:28.747Z,11.39
2017-10-08T11:22:28.783Z,11.49
2017-10-08T11:24:23.190Z,11.36
2017-10-08T11:25:23.249Z,11.44
2017-10-08T11:27:17.347Z,11.46
2017-10-08T11:28:16.862Z,11.53
2017-10-08T11:30:11.990Z,11.65
2017-10-08T11:31:12.644Z,11.75
2017-10-08T11:33:07.519Z,11.72
2017-10-08T11:34:07.477Z,11.80
2017-10-08T11:36:02.816Z,11.89
2017-10-08T11:37:03.045Z,11.90
2017-10-08T11:38:58.391Z,11.90
2017-10-08T11:39:58.219Z,11.83
2017-10-08T11:41:52.696Z,11.85
2017-10-08T11:42:52.712Z,11.89
2017-10-08T11:44:46.157Z,11.89
2017-10-08T11:45:48.287Z,11.87
2017-10-08T11:47:49.085Z,11.87
2017-10-08T11:48:40.468Z,11.83
2017-10-08T11:50:33.821Z,11.99
2017-10-08T11:51:33.857Z,12.04
2017-10-08T11:53:30.195Z,12.29
2017-10-08T11:54:28.177Z,12.15
2017-10-08T11:56:22.042Z,12.42
2017-10-08T11:57:21.789Z,12.34
2017-10-08T11:59:16.000Z,12.56
2017-10-08T12:00:16.056Z,12.49
2017-10-08T12:02:10.052Z,12.49
2017-10-08T12:03:09.474Z,12.56
2017-10-08T12:05:02.990Z,12.45
2017-10-08T12:06:03.078Z,12.45
2017-10-08T12:07:57.388Z,12.41
2017-10-08T12:08:57.553Z,12.41
2017-10-08T12:10:50.976Z,12.38
2017-10-08T12:11:59.606Z,12.38
2017-10-08T12:13:45.316Z,12.38
2017-10-08T12:14:45.277Z,12.26
2017-10-08T12:16:39.860Z,12.39
2017-10-08T12:17:40.483Z,12.33
2017-10-08T12:19:34.068Z,12.38
2017-10-08T12:20:42.842Z,12.30
2017-10-08T12:22:28.952Z,12.33
2017-10-08T12:23:37.283Z,12.39
2017-10-08T12:25:23.172Z,12.38
2017-10-08T12:26:31.743Z,12.31
2017-10-08T12:28:18.586Z,12.54
2017-10-08T12:29:27.227Z,12.41
2017-10-08T12:31:14.070Z,12.38
2017-10-08T12:32:22.662Z,12.42
2017-10-08T12:34:08.355Z,12.38
2017-10-08T12:35:08.462Z,12.44
2017-10-08T12:37:11.206Z,12.44
2017-10-08T12:38:12.450Z,12.42
2017-10-08T12:39:57.099Z,12.44
2017-10-08T12:41:05.850Z,12.45
2017-10-08T12:42:51.683Z,12.31
2017-10-08T12:44:00.161Z,12.34
2017-10-08T12:45:55.329Z,12.29
2017-10-08T12:46:55.513Z,12.30
2017-10-08T12:48:41.309Z,12.26
2017-10-08T12:51:05.649Z,12.33
2017-10-08T12:52:06.504Z,12.38
2017-10-08T12:54:00.074Z,12.38
2017-10-08T12:55:00.645Z,12.21
2017-10-08T12:56:55.607Z,12.13
2017-10-08T12:57:55.444Z,12.11
2017-10-08T12:59:49.787Z,11.93
2017-10-08T13:00:58.837Z,11.90
2017-10-08T13:02:54.482Z,11.78
2017-10-08T13:03:53.907Z,11.83
2017-10-08T13:05:39.804Z,11.89
2017-10-08T13:06:49.714Z,11.89
2017-10-08T13:08:41.781Z,11.93
2017-10-08T13:09:34.012Z,11.86
2017-10-08T13:11:37.169Z,11.83
2017-10-08T13:12:28.633Z,11.87
2017-10-08T13:14:31.549Z,11.86
2017-10-08T13:15:23.137Z,12.04
2017-10-08T13:17:25.959Z,12.09
2017-10-08T13:18:25.869Z,12.08
2017-10-08T13:20:11.859Z,12.37
2017-10-08T13:21:20.428Z,12.31
2017-10-08T13:23:14.761Z,12.56
2017-10-08T13:24:15.885Z,12.67
2017-10-08T13:26:09.322Z,12.45
2017-10-08T13:27:09.094Z,12.46
2017-10-08T13:28:55.151Z,12.30
2017-10-08T13:30:03.673Z,12.23
2017-10-08T13:31:49.509Z,12.15
2017-10-08T13:32:58.221Z,12.21
2017-10-08T13:34:44.325Z,12.27
2017-10-08T13:35:52.501Z,12.23
2017-10-08T13:37:38.237Z,12.15
2017-10-08T13:38:38.192Z,12.16
2017-10-08T13:40:32.665Z,12.16
2017-10-08T13:41:41.412Z,12.21
2017-10-08T13:43:27.259Z,12.13
2017-10-08T13:44:35.793Z,12.15
2017-10-08T13:46:21.518Z,12.13
2017-10-08T13:47:29.602Z,12.08
2017-10-08T13:49:16.271Z,12.05
2017-10-08T13:50:24.845Z,12.04
2017-10-08T13:52:09.993Z,11.97
2017-10-08T13:53:10.168Z,12.01
2017-10-08T13:55:10.776Z,12.04
2017-10-08T13:56:02.671Z,11.89
2017-10-08T13:58:05.206Z,12.02
2017-10-08T13:59:04.663Z,12.01
2017-10-08T14:01:00.616Z,11.87
2017-10-08T14:01:58.844Z,11.87
2017-10-08T14:03:44.779Z,11.87
2017-10-08T14:04:44.753Z,11.83
2017-10-08T14:06:47.595Z,11.82
2017-10-08T14:07:47.717Z,11.82
2017-10-08T14:09:33.399Z,11.97
2017-10-08T14:10:33.422Z,11.99
2017-10-08T14:12:29.160Z,12.02
2017-10-08T14:13:27.976Z,11.97
2017-10-08T14:15:22.294Z,12.04
2017-10-08T14:16:31.073Z,12.08
2017-10-08T14:18:16.640Z,12.01
2017-10-08T14:19:16.764Z,12.12
2017-10-08T14:21:11.331Z,12.06
2017-10-08T14:22:11.121Z,12.04
2017-10-08T14:24:13.228Z,12.23
2017-10-08T14:25:14.362Z,12.08
2017-10-08T14:26:59.985Z,12.13
2017-10-08T14:28:00.070Z,12.16
2017-10-08T14:29:53.464Z,12.23
2017-10-08T14:30:53.417Z,12.41
2017-10-08T14:32:54.749Z,12.49
2017-10-08T14:33:56.632Z,12.54
2017-10-08T14:35:50.729Z,12.60
2017-10-08T14:36:41.186Z,12.48
2017-10-08T14:38:35.721Z,12.52
2017-10-08T14:39:35.549Z,12.54
2017-10-08T14:41:29.017Z,12.52
2017-10-08T14:42:38.330Z,12.45
2017-10-08T14:44:32.120Z,12.45
2017-10-08T14:45:33.188Z,12.52
2017-10-08T14:47:18.375Z,12.57
2017-10-08T14:48:26.766Z,12.69
2017-10-08T14:50:22.191Z,12.75
2017-10-08T14:51:12.435Z,12.79
2017-10-08T14:53:06.733Z,12.84
2017-10-08T14:54:06.985Z,12.71
2017-10-08T14:56:01.173Z,12.70
2017-10-08T14:57:01.200Z,12.77
2017-10-08T14:58:55.574Z,12.88
2017-10-08T14:59:55.653Z,12.85
2017-10-08T15:01:48.928Z,12.79
2017-10-08T15:02:56.680Z,12.69
2017-10-08T15:04:52.003Z,12.69
2017-10-08T15:05:43.473Z,12.66
2017-10-08T15:07:36.730Z,12.48
2017-10-08T15:08:36.697Z,12.54
2017-10-08T15:10:30.122Z,12.56
2017-10-08T15:11:30.450Z,12.49
2017-10-08T15:13:24.636Z,12.34
2017-10-08T15:14:33.227Z,12.39
2017-10-08T15:16:27.676Z,12.37
2017-10-08T15:17:19.145Z,12.45
2017-10-08T15:19:13.545Z,12.41
2017-10-08T15:20:13.607Z,12.42
2017-10-08T15:22:14.598Z,12.41
2017-10-08T15:23:06.900Z,12.37
2017-10-08T15:25:00.459Z,12.41
2017-10-08T15:26:00.388Z,12.26
2017-10-08T15:27:53.798Z,12.42
2017-10-08T15:28:53.784Z,12.37
2017-10-08T15:30:46.865Z,12.33
2017-10-08T15:31:55.530Z,12.27
2017-10-08T15:33:41.771Z,12.33
2017-10-08T15:34:52.422Z,12.37
2017-10-08T15:36:37.120Z,12.38
2017-10-08T15:37:37.154Z,12.34
2017-10-08T15:39:30.512Z,12.37
2017-10-08T15:40:30.411Z,12.27
2017-10-08T15:42:33.327Z,12.37
2017-10-08T15:43:32.066Z,12.31
2017-10-08T15:45:29.078Z,12.37
2017-10-08T15:46:19.252Z,12.34
2017-10-08T15:48:13.596Z,12.09
2017-10-08T15:50:38.440Z,12.09
2017-10-08T15:51:28.183Z,12.16
2017-10-08T15:53:22.587Z,12.23
2017-10-08T15:54:22.707Z,12.20
2017-10-08T15:56:16.799Z,12.20
2017-10-08T15:57:16.154Z,12.13
2017-10-08T15:59:11.247Z,12.20
2017-10-08T16:00:12.197Z,12.19
2017-10-08T16:02:17.420Z,12.08
2017-10-08T16:03:06.593Z,12.11
2017-10-08T16:05:00.946Z,11.99
2017-10-08T16:06:11.358Z,12.08
2017-10-08T16:07:56.633Z,12.02
2017-10-08T16:09:04.486Z,12.04
2017-10-08T16:10:51.533Z,12.05
2017-10-08T16:11:59.840Z,12.08
2017-10-08T16:13:45.969Z,12.02
2017-10-08T16:14:53.348Z,11.99
2017-10-08T16:16:41.364Z,12.02
2017-10-08T16:17:49.773Z,12.06
2017-10-08T16:19:35.821Z,12.06
2017-10-08T16:20:44.672Z,12.05
2017-10-08T16:22:30.354Z,11.97
2017-10-08T16:23:37.998Z,11.93
2017-10-08T16:25:23.364Z,11.87
2017-10-08T16:26:23.406Z,11.82
2017-10-08T16:28:17.888Z,11.90
2017-10-08T16:29:26.117Z,11.89
2017-10-08T16:31:10.903Z,11.86
2017-10-08T16:32:19.541Z,11.87
2017-10-08T16:34:06.430Z,11.85
2017-10-08T16:35:14.708Z,11.83
2017-10-08T16:37:00.709Z,11.87
2017-10-08T16:38:09.509Z,11.78
2017-10-08T16:39:55.762Z,11.75
2017-10-08T16:41:05.029Z,11.74
2017-10-08T16:42:50.231Z,11.77
2017-10-08T16:43:58.455Z,11.85
2017-10-08T16:45:44.191Z,11.77
2017-10-08T16:46:51.990Z,11.75
2017-10-08T16:48:38.848Z,11.74
2017-10-08T16:49:39.263Z,11.71
2017-10-08T16:51:32.118Z,11.72
2017-10-08T16:52:32.713Z,11.71
2017-10-08T16:54:26.316Z,11.67
2017-10-08T16:55:26.349Z,11.68
2017-10-08T16:57:20.735Z,11.67
2017-10-08T16:58:21.279Z,11.70
2017-10-08T17:00:16.206Z,11.61
2017-10-08T17:01:16.353Z,11.65
2017-10-08T17:03:19.888Z,11.70
2017-10-08T17:04:11.678Z,11.62
2017-10-08T17:06:05.831Z,11.70
2017-10-08T17:07:06.415Z,11.64
2017-10-08T17:09:00.311Z,11.64
2017-10-08T17:10:00.798Z,11.71
2017-10-08T17:11:54.873Z,11.61
2017-10-08T17:13:03.470Z,11.64
2017-10-08T17:14:47.990Z,11.65
2017-10-08T17:15:56.601Z,11.61
2017-10-08T17:17:50.904Z,11.59
2017-10-08T17:18:42.326Z,11.53
2017-10-08T17:20:36.949Z,11.54
2017-10-08T17:21:45.387Z,11.49
2017-10-08T17:23:31.319Z,11.65
2017-10-08T17:24:39.169Z,11.53
2017-10-08T17:26:33.508Z,11.54
2017-10-08T17:27:25.096Z,11.53
2017-10-08T17:29:20.398Z,11.59
2017-10-08T17:30:20.649Z,11.52
2017-10-08T17:32:15.501Z,11.54
2017-10-08T17:33:16.593Z,11.53
2017-10-08T17:35:17.520Z,11.53
2017-10-08T17:36:18.570Z,11.52
2017-10-08T17:38:04.402Z,11.46
2017-10-08T17:39:12.884Z,11.54
2017-10-08T17:41:07.254Z,11.46
2017-10-08T17:42:08.230Z,11.49
2017-10-08T17:43:52.794Z,11.47
2017-10-08T17:45:02.580Z,11.54
2017-10-08T17:46:47.274Z,11.47
2017-10-08T17:49:41.868Z,11.44
2017-10-08T17:50:51.309Z,11.35
2017-10-08T17:52:36.661Z,11.36
2017-10-08T17:53:35.940Z,11.39
2017-10-08T17:55:30.551Z,11.41
2017-10-08T17:56:31.193Z,11.43
2017-10-08T17:58:24.996Z,11.39
2017-10-08T17:59:25.068Z,11.44
2017-10-08T18:01:19.154Z,11.36
2017-10-08T18:02:19.251Z,11.35
2017-10-08T18:04:14.702Z,11.31
2017-10-08T18:05:23.547Z,11.31
2017-10-08T18:07:09.257Z,11.21
2017-10-08T18:08:08.986Z,11.20
2017-10-08T18:10:04.463Z,11.20
2017-10-08T18:11:04.529Z,11.16
2017-10-08T18:12:57.711Z,11.21
2017-10-08T18:13:57.539Z,11.24
2017-10-08T18:15:53.379Z,11.24
2017-10-08T18:16:53.612Z,11.24
2017-10-08T18:18:49.102Z,11.27
2017-10-08T18:19:47.699Z,11.25
2017-10-08T18:21:42.392Z,11.27
2017-10-08T18:22:42.338Z,11.34
2017-10-08T18:24:36.462Z,11.34
2017-10-08T18:25:37.912Z,11.34
2017-10-08T18:27:30.121Z,11.27
2017-10-08T18:28:30.499Z,11.19
2017-10-08T18:30:24.743Z,11.27
2017-10-08T18:31:32.629Z,11.31
2017-10-08T18:33:19.673Z,11.34
2017-10-08T18:34:19.319Z,11.20
2017-10-08T18:36:13.135Z,11.20
2017-10-08T18:37:13.167Z,11.21
2017-10-08T18:39:06.573Z,11.21
2017-10-08T18:40:06.785Z,11.14
2017-10-08T18:42:03.276Z,11.03
2017-10-08T18:43:02.078Z,11.10
2017-10-08T18:44:55.395Z,11.03
2017-10-08T18:45:55.065Z,11.06
2017-10-08T18:47:49.671Z,11.10
2017-10-08T18:50:44.059Z,11.10
2017-10-08T18:51:44.265Z,11.10
2017-10-08T18:53:38.788Z,11.13
2017-10-08T18:54:38.420Z,11.14
2017-10-08T18:56:32.980Z,11.17
2017-10-08T18:57:32.259Z,11.13
2017-10-08T18:59:27.204Z,11.25
2017-10-08T19:00:26.771Z,11.11
2017-10-08T19:02:22.211Z,11.21
2017-10-08T19:03:22.275Z,11.17